sensor_id;sensor_type;location;lat;lon;timestamp;pressure;altitude;pressure_sealevel;temperature;humidity
58955;BME280;45815;52.334;5.024;2023-02-20T00:02:15;102493.28;;;6.21;100.00
58955;BME280;45815;52.334;5.024;2023-02-20T00:04:41;102487.44;;;6.25;100.00
58955;BME280;45815;52.334;5.024;2023-02-20T00:07:06;102479.81;;;6.28;100.00
58955;BME280;45815;52.334;5.024;2023-02-20T00:09:31;102477.81;;;6.24;100.00
58955;BME280;45815;52.334;5.024;2023-02-20T00:11:57;102472.28;;;6.32;100.00
58955;BME280;45815;52.334;5.024;2023-02-20T00:14:22;102465.53;;;6.36;100.00
58955;BME280;45815;52.334;5.024;2023-02-20T00:16:48;102461.22;;;6.37;100.00
58955;BME280;45815;52.334;5.024;2023-02-20T00:19:14;102457.94;;;6.39;100.00
58955;BME280;45815;52.334;5.024;2023-02-20T00:21:46;102464.81;;;6.39;100.00
58955;BME280;45815;52.334;5.024;2023-02-20T00:24:13;102466.94;;;6.44;100.00
58955;BME280;45815;52.334;5.024;2023-02-20T00:26:44;102462.50;;;6.43;100.00
58955;BME280;45815;52.334;5.024;2023-02-20T00:29:10;102458.28;;;6.45;100.00
58955;BME280;45815;52.334;5.024;2023-02-20T00:31:38;102455.97;;;6.50;100.00
58955;BME280;45815;52.334;5.024;2023-02-20T00:34:03;102447.41;;;6.52;100.00
58955;BME280;45815;52.334;5.024;2023-02-20T00:36:29;102443.31;;;6.56;100.00
58955;BME280;45815;52.334;5.024;2023-02-20T00:38:54;102445.03;;;6.55;100.00
58955;BME280;45815;52.334;5.024;2023-02-20T00:41:22;102445.03;;;6.55;100.00
58955;BME280;45815;52.334;5.024;2023-02-20T00:43:47;102446.09;;;6.59;100.00
58955;BME280;45815;52.334;5.024;2023-02-20T00:46:13;102434.59;;;6.55;100.00
58955;BME280;45815;52.334;5.024;2023-02-20T00:48:39;102428.97;;;6.49;100.00
58955;BME280;45815;52.334;5.024;2023-02-20T00:51:23;102423.34;;;6.57;100.00
58955;BME280;45815;52.334;5.024;2023-02-20T00:53:49;102420.09;;;6.61;100.00
58955;BME280;45815;52.334;5.024;2023-02-20T00:56:14;102410.28;;;6.57;100.00
58955;BME280;45815;52.334;5.024;2023-02-20T00:58:40;102387.41;;;6.52;100.00
58955;BME280;45815;52.334;5.024;2023-02-20T01:01:06;102385.09;;;6.57;100.00
58955;BME280;45815;52.334;5.024;2023-02-20T01:03:31;102385.81;;;6.54;100.00
58955;BME280;45815;52.334;5.024;2023-02-20T01:05:57;102370.78;;;6.50;100.00
58955;BME280;45815;52.334;5.024;2023-02-20T01:08:23;102361.00;;;6.46;100.00
58955;BME280;45815;52.334;5.024;2023-02-20T01:10:48;102353.94;;;6.45;100.00
58955;BME280;45815;52.334;5.024;2023-02-20T01:13:14;102360.72;;;6.42;100.00
58955;BME280;45815;52.334;5.024;2023-02-20T01:15:39;102350.72;;;6.34;100.00
58955;BME280;45815;52.334;5.024;2023-02-20T01:18:04;102371.94;;;6.41;100.00
58955;BME280;45815;52.334;5.024;2023-02-20T01:20:30;102359.78;;;6.26;100.00
58955;BME280;45815;52.334;5.024;2023-02-20T01:22:56;102376.25;;;6.40;100.00
58955;BME280;45815;52.334;5.024;2023-02-20T01:25:21;102374.25;;;6.36;100.00
58955;BME280;45815;52.334;5.024;2023-02-20T01:27:47;102359.63;;;6.38;100.00
58955;BME280;45815;52.334;5.024;2023-02-20T01:30:12;102357.72;;;6.36;100.00
58955;BME280;45815;52.334;5.024;2023-02-20T01:32:38;102363.75;;;6.34;100.00
58955;BME280;45815;52.334;5.024;2023-02-20T01:35:03;102360.22;;;6.34;100.00
58955;BME280;45815;52.334;5.024;2023-02-20T01:37:29;102354.94;;;6.32;100.00
58955;BME280;45815;52.334;5.024;2023-02-20T01:39:54;102369.66;;;6.32;100.00
58955;BME280;45815;52.334;5.024;2023-02-20T01:42:23;102378.41;;;6.32;100.00
58955;BME280;45815;52.334;5.024;2023-02-20T01:44:52;102361.66;;;6.29;100.00
58955;BME280;45815;52.334;5.024;2023-02-20T01:47:20;102353.22;;;6.33;100.00
58955;BME280;45815;52.334;5.024;2023-02-20T01:49:57;102351.66;;;6.22;100.00
58955;BME280;45815;52.334;5.024;2023-02-20T01:52:25;102344.84;;;6.24;100.00
58955;BME280;45815;52.334;5.024;2023-02-20T01:54:59;102317.66;;;6.05;100.00
58955;BME280;45815;52.334;5.024;2023-02-20T01:57:27;102334.94;;;6.18;100.00
58955;BME280;45815;52.334;5.024;2023-02-20T01:59:57;102333.31;;;6.20;100.00
58955;BME280;45815;52.334;5.024;2023-02-20T02:02:27;102343.84;;;6.22;100.00
58955;BME280;45815;52.334;5.024;2023-02-20T02:04:55;102342.22;;;6.24;100.00
58955;BME280;45815;52.334;5.024;2023-02-20T02:07:22;102343.84;;;6.22;100.00
58955;BME280;45815;52.334;5.024;2023-02-20T02:10:07;102346.44;;;6.22;100.00
58955;BME280;45815;52.334;5.024;2023-02-20T02:12:34;102349.06;;;6.22;100.00
58955;BME280;45815;52.334;5.024;2023-02-20T02:15:00;102340.63;;;6.26;100.00
58955;BME280;45815;52.334;5.024;2023-02-20T02:17:32;102340.63;;;6.26;100.00
58955;BME280;45815;52.334;5.024;2023-02-20T02:35:25;102314.28;;;6.36;100.00
58955;BME280;45815;52.334;5.024;2023-02-20T02:39:55;102310.22;;;6.41;100.00
58955;BME280;45815;52.334;5.024;2023-02-20T02:42:35;102305.22;;;6.44;100.00
58955;BME280;45815;52.334;5.024;2023-02-20T02:50:16;102300.34;;;6.50;100.00
58955;BME280;45815;52.334;5.024;2023-02-20T02:52:44;102289.19;;;6.53;100.00
58955;BME280;45815;52.334;5.024;2023-02-20T02:55:22;102288.13;;;6.49;100.00
58955;BME280;45815;52.334;5.024;2023-02-20T02:57:48;102303.16;;;6.53;100.00
58955;BME280;45815;52.334;5.024;2023-02-20T03:00:24;102296.94;;;6.51;100.00
58955;BME280;45815;52.334;5.024;2023-02-20T03:03:01;102295.41;;;6.55;100.00
58955;BME280;45815;52.334;5.024;2023-02-20T03:05:37;102293.88;;;6.59;100.00
58955;BME280;45815;52.334;5.024;2023-02-20T03:11:06;102286.84;;;6.58;100.00
58955;BME280;45815;52.334;5.024;2023-02-20T03:13:38;102294.06;;;6.62;100.00
58955;BME280;45815;52.334;5.024;2023-02-20T03:16:34;102286.31;;;6.63;100.00
58955;BME280;45815;52.334;5.024;2023-02-20T03:19:03;102287.50;;;6.68;100.00
58955;BME280;45815;52.334;5.024;2023-02-20T03:21:33;102291.81;;;6.68;100.00
58955;BME280;45815;52.334;5.024;2023-02-20T03:24:03;102284.78;;;6.67;100.00
58955;BME280;45815;52.334;5.024;2023-02-20T03:26:34;102278.84;;;6.69;100.00
58955;BME280;45815;52.334;5.024;2023-02-20T03:29:26;102273.56;;;6.68;100.00
58955;BME280;45815;52.334;5.024;2023-02-20T03:31:57;102278.78;;;6.68;100.00
58955;BME280;45815;52.334;5.024;2023-02-20T03:34:45;102271.72;;;6.67;100.00
58955;BME280;45815;52.334;5.024;2023-02-20T03:37:33;102258.69;;;6.67;100.00
58955;BME280;45815;52.334;5.024;2023-02-20T03:40:21;102259.69;;;6.69;100.00
58955;BME280;45815;52.334;5.024;2023-02-20T03:43:11;102264.38;;;6.74;100.00
58955;BME280;45815;52.334;5.024;2023-02-20T03:46:06;102260.22;;;6.78;100.00
58955;BME280;45815;52.334;5.024;2023-02-20T03:48:44;102256.72;;;6.78;100.00
58955;BME280;45815;52.334;5.024;2023-02-20T03:51:12;102251.03;;;6.85;100.00
58955;BME280;45815;52.334;5.024;2023-02-20T03:53:57;102258.97;;;6.86;100.00
58955;BME280;45815;52.334;5.024;2023-02-20T03:56:27;102247.59;;;6.86;100.00
58955;BME280;45815;52.334;5.024;2023-02-20T03:58:59;102242.56;;;6.89;100.00
58955;BME280;45815;52.334;5.024;2023-02-20T04:01:26;102252.28;;;6.91;100.00
58955;BME280;45815;52.334;5.024;2023-02-20T04:03:54;102242.72;;;6.92;100.00
58955;BME280;45815;52.334;5.024;2023-02-20T04:06:22;102243.63;;;6.92;100.00
58955;BME280;45815;52.334;5.024;2023-02-20T04:09:06;102240.03;;;6.90;100.00
58955;BME280;45815;52.334;5.024;2023-02-20T04:11:41;102235.00;;;6.93;100.00
58955;BME280;45815;52.334;5.024;2023-02-20T04:14:09;102236.25;;;6.85;100.00
58955;BME280;45815;52.334;5.024;2023-02-20T04:16:42;102253.53;;;6.98;100.00
58955;BME280;45815;52.334;5.024;2023-02-20T04:19:10;102251.19;;;7.03;100.00
58955;BME280;45815;52.334;5.024;2023-02-20T04:21:56;102242.63;;;7.05;100.00
58955;BME280;45815;52.334;5.024;2023-02-20T04:24:41;102241.00;;;7.07;100.00
58955;BME280;45815;52.334;5.024;2023-02-20T04:27:09;102245.00;;;7.17;100.00
58955;BME280;45815;52.334;5.024;2023-02-20T04:29:40;102248.16;;;7.11;100.00
58955;BME280;45815;52.334;5.024;2023-02-20T04:32:06;102241.56;;;7.18;100.00
58955;BME280;45815;52.334;5.024;2023-02-20T04:34:34;102244.53;;;7.24;100.00
58955;BME280;45815;52.334;5.024;2023-02-20T04:37:09;102239.47;;;7.27;100.00
58955;BME280;45815;52.334;5.024;2023-02-20T04:39:36;102236.94;;;7.29;100.00
58955;BME280;45815;52.334;5.024;2023-02-20T04:42:02;102231.38;;;7.23;100.00
58955;BME280;45815;52.334;5.024;2023-02-20T04:44:28;102239.16;;;7.37;100.00
58955;BME280;45815;52.334;5.024;2023-02-20T04:46:58;102225.19;;;7.37;100.00
58955;BME280;45815;52.334;5.024;2023-02-20T04:49:23;102216.81;;;7.43;100.00
58955;BME280;45815;52.334;5.024;2023-02-20T04:51:53;102223.97;;;7.47;100.00
58955;BME280;45815;52.334;5.024;2023-02-20T04:54:20;102219.41;;;7.43;100.00
58955;BME280;45815;52.334;5.024;2023-02-20T04:56:46;102231.09;;;7.49;100.00
58955;BME280;45815;52.334;5.024;2023-02-20T04:59:12;102234.41;;;7.47;100.00
58955;BME280;45815;52.334;5.024;2023-02-20T05:01:37;102207.72;;;7.36;100.00
58955;BME280;45815;52.334;5.024;2023-02-20T05:04:03;102232.00;;;7.50;100.00
58955;BME280;45815;52.334;5.024;2023-02-20T05:06:29;102232.63;;;7.46;100.00
58955;BME280;45815;52.334;5.024;2023-02-20T05:08:54;102234.50;;;7.48;100.00
58955;BME280;45815;52.334;5.024;2023-02-20T05:11:21;102242.50;;;7.51;100.00
58955;BME280;45815;52.334;5.024;2023-02-20T05:13:46;102247.66;;;7.50;100.00
58955;BME280;45815;52.334;5.024;2023-02-20T05:16:12;102253.94;;;7.53;100.00
58955;BME280;45815;52.334;5.024;2023-02-20T05:18:40;102230.19;;;7.49;100.00
58955;BME280;45815;52.334;5.024;2023-02-20T05:21:05;102242.75;;;7.56;100.00
58955;BME280;45815;52.334;5.024;2023-02-20T05:23:49;102239.97;;;7.53;100.00
58955;BME280;45815;52.334;5.024;2023-02-20T05:26:20;102240.88;;;7.53;100.00
58955;BME280;45815;52.334;5.024;2023-02-20T05:28:46;102235.75;;;7.55;100.00
58955;BME280;45815;52.334;5.024;2023-02-20T05:31:11;102232.50;;;7.59;100.00
58955;BME280;45815;52.334;5.024;2023-02-20T05:33:37;102235.09;;;7.59;100.00
58955;BME280;45815;52.334;5.024;2023-02-20T05:36:03;102230.91;;;7.63;100.00
58955;BME280;45815;52.334;5.024;2023-02-20T05:38:29;102221.19;;;7.60;100.00
58955;BME280;45815;52.334;5.024;2023-02-20T05:40:55;102226.03;;;7.69;100.00
58955;BME280;45815;52.334;5.024;2023-02-20T05:43:20;102218.09;;;7.67;100.00
58955;BME280;45815;52.334;5.024;2023-02-20T05:45:47;102224.16;;;7.66;100.00
58955;BME280;45815;52.334;5.024;2023-02-20T05:48:14;102232.16;;;7.69;100.00
58955;BME280;45815;52.334;5.024;2023-02-20T05:50:39;102214.34;;;7.62;100.00
58955;BME280;45815;52.334;5.024;2023-02-20T05:53:05;102213.59;;;7.65;100.00
58955;BME280;45815;52.334;5.024;2023-02-20T05:55:31;102223.16;;;7.64;100.00
58955;BME280;45815;52.334;5.024;2023-02-20T05:57:57;102207.50;;;7.64;100.00
58955;BME280;45815;52.334;5.024;2023-02-20T06:00:23;102205.94;;;7.51;100.00
58955;BME280;45815;52.334;5.024;2023-02-20T06:02:49;102215.97;;;7.60;100.00
58955;BME280;45815;52.334;5.024;2023-02-20T06:05:14;102212.72;;;7.64;100.00
58955;BME280;45815;52.334;5.024;2023-02-20T06:07:43;102197.19;;;7.67;100.00
58955;BME280;45815;52.334;5.024;2023-02-20T06:10:08;102200.44;;;7.63;100.00
58955;BME280;45815;52.334;5.024;2023-02-20T06:12:34;102201.28;;;7.62;100.00
58955;BME280;45815;52.334;5.024;2023-02-20T06:14:59;102179.78;;;7.51;100.00
58955;BME280;45815;52.334;5.024;2023-02-20T06:17:25;102219.56;;;7.62;100.00
58955;BME280;45815;52.334;5.024;2023-02-20T06:19:50;102218.75;;;7.63;100.00
58955;BME280;45815;52.334;5.024;2023-02-20T06:22:16;102226.53;;;7.61;100.00
58955;BME280;45815;52.334;5.024;2023-02-20T06:24:46;102222.28;;;7.64;100.00
58955;BME280;45815;52.334;5.024;2023-02-20T06:27:12;102203.50;;;7.54;100.00
58955;BME280;45815;52.334;5.024;2023-02-20T06:29:37;102223.31;;;7.67;100.00
58955;BME280;45815;52.334;5.024;2023-02-20T06:32:03;102220.06;;;7.71;100.00
58955;BME280;45815;52.334;5.024;2023-02-20T06:34:28;102215.72;;;7.72;100.00
58955;BME280;45815;52.334;5.024;2023-02-20T06:36:59;102220.06;;;7.71;100.00
58955;BME280;45815;52.334;5.024;2023-02-20T06:39:27;102217.28;;;7.68;100.00
58955;BME280;45815;52.334;5.024;2023-02-20T06:41:53;102216.31;;;7.66;100.00
58955;BME280;45815;52.334;5.024;2023-02-20T06:44:18;102209.28;;;7.65;100.00
58955;BME280;45815;52.334;5.024;2023-02-20T06:46:43;102201.38;;;7.64;100.00
58955;BME280;45815;52.334;5.024;2023-02-20T06:49:09;102207.34;;;7.61;100.00
58955;BME280;45815;52.334;5.024;2023-02-20T06:51:34;102204.97;;;7.66;100.00
58955;BME280;45815;52.334;5.024;2023-02-20T06:54:02;102205.88;;;7.66;100.00
58955;BME280;45815;52.334;5.024;2023-02-20T06:56:29;102217.28;;;7.68;100.00
58955;BME280;45815;52.334;5.024;2023-02-20T06:58:56;102205.22;;;7.70;100.00
58955;BME280;45815;52.334;5.024;2023-02-20T07:01:25;102202.59;;;7.70;100.00
58955;BME280;45815;52.334;5.024;2023-02-20T07:03:54;102205.38;;;7.73;100.00
58955;BME280;45815;52.334;5.024;2023-02-20T07:06:20;102195.31;;;7.65;100.00
58955;BME280;45815;52.334;5.024;2023-02-20T07:08:45;102235.59;;;7.68;100.00
58955;BME280;45815;52.334;5.024;2023-02-20T07:11:12;102211.25;;;7.69;100.00
58955;BME280;45815;52.334;5.024;2023-02-20T07:13:38;102216.63;;;7.72;100.00
58955;BME280;45815;52.334;5.024;2023-02-20T07:16:05;102222.44;;;7.67;100.00
58955;BME280;45815;52.334;5.024;2023-02-20T07:18:30;102226.13;;;7.70;100.00
58955;BME280;45815;52.334;5.024;2023-02-20T07:20:56;102219.91;;;7.68;100.00
58955;BME280;45815;52.334;5.024;2023-02-20T07:23:22;102240.13;;;7.72;100.00
58955;BME280;45815;52.334;5.024;2023-02-20T07:25:48;102235.59;;;7.68;100.00
58955;BME280;45815;52.334;5.024;2023-02-20T07:28:17;102221.69;;;7.69;100.00
58955;BME280;45815;52.334;5.024;2023-02-20T07:30:44;102226.44;;;7.76;100.00
58955;BME280;45815;52.334;5.024;2023-02-20T07:33:10;102229.19;;;7.79;100.00
58955;BME280;45815;52.334;5.024;2023-02-20T07:35:36;102243.69;;;7.73;100.00
58955;BME280;45815;52.334;5.024;2023-02-20T07:38:03;102247.44;;;7.78;100.00
58955;BME280;45815;52.334;5.024;2023-02-20T07:40:29;102233.53;;;7.79;100.00
58955;BME280;45815;52.334;5.024;2023-02-20T07:42:54;102243.25;;;7.81;100.00
58955;BME280;45815;52.334;5.024;2023-02-20T07:45:21;102236.09;;;7.77;100.00
58955;BME280;45815;52.334;5.024;2023-02-20T07:47:46;102234.25;;;7.76;100.00
58955;BME280;45815;52.334;5.024;2023-02-20T07:50:14;102239.50;;;7.76;100.00
58955;BME280;45815;52.334;5.024;2023-02-20T07:52:39;102234.50;;;7.81;100.00
58955;BME280;45815;52.334;5.024;2023-02-20T07:55:05;102224.28;;;7.86;100.00
58955;BME280;45815;52.334;5.024;2023-02-20T07:57:32;102223.56;;;7.88;100.00
58955;BME280;45815;52.334;5.024;2023-02-20T07:59:59;102239.97;;;7.86;100.00
58955;BME280;45815;52.334;5.024;2023-02-20T08:02:24;102235.09;;;7.92;100.00
58955;BME280;45815;52.334;5.024;2023-02-20T08:04:50;102237.69;;;7.92;100.00
58955;BME280;45815;52.334;5.024;2023-02-20T08:07:15;102226.56;;;7.96;100.00
58955;BME280;45815;52.334;5.024;2023-02-20T08:09:40;102225.84;;;7.98;100.00
58955;BME280;45815;52.334;5.024;2023-02-20T08:12:06;102223.38;;;8.01;100.00
58955;BME280;45815;52.334;5.024;2023-02-20T08:14:31;102224.19;;;8.00;100.00
58955;BME280;45815;52.334;5.024;2023-02-20T08:16:57;102232.44;;;8.08;100.00
58955;BME280;45815;52.334;5.024;2023-02-20T08:19:22;102222.50;;;8.01;100.00
58955;BME280;45815;52.334;5.024;2023-02-20T08:21:48;102212.53;;;7.94;100.00
58955;BME280;45815;52.334;5.024;2023-02-20T08:24:13;102230.34;;;8.01;100.00
58955;BME280;45815;52.334;5.024;2023-02-20T08:26:43;102224.78;;;7.95;100.00
58955;BME280;45815;52.334;5.024;2023-02-20T08:29:09;102235.50;;;7.83;100.00
58955;BME280;45815;52.334;5.024;2023-02-20T08:31:34;102221.31;;;7.96;100.00
58955;BME280;45815;52.334;5.024;2023-02-20T08:34:00;102226.09;;;8.03;100.00
58955;BME280;45815;52.334;5.024;2023-02-20T08:36:25;102217.25;;;8.01;100.00
58955;BME280;45815;52.334;5.024;2023-02-20T08:38:51;102222.41;;;7.99;100.00
58955;BME280;45815;52.334;5.024;2023-02-20T08:41:16;102215.38;;;7.98;100.00
58955;BME280;45815;52.334;5.024;2023-02-20T08:43:42;102216.44;;;8.02;100.00
58955;BME280;45815;52.334;5.024;2023-02-20T08:46:08;102209.25;;;7.98;100.00
58955;BME280;45815;52.334;5.024;2023-02-20T08:48:34;102225.41;;;8.07;100.00
58955;BME280;45815;52.334;5.024;2023-02-20T08:51:00;102214.66;;;8.01;100.00
58955;BME280;45815;52.334;5.024;2023-02-20T08:53:25;102226.16;;;8.04;100.00
58955;BME280;45815;52.334;5.024;2023-02-20T08:55:51;102226.38;;;8.09;100.00
58955;BME280;45815;52.334;5.024;2023-02-20T08:58:21;102220.66;;;8.16;100.00
58955;BME280;45815;52.334;5.024;2023-02-20T09:00:47;102229.56;;;8.20;100.00
58955;BME280;45815;52.334;5.024;2023-02-20T09:03:12;102218.72;;;8.30;100.00
58955;BME280;45815;52.334;5.024;2023-02-20T09:05:38;102225.53;;;8.27;100.00
58955;BME280;45815;52.334;5.024;2023-02-20T09:08:03;102215.13;;;8.28;100.00
58955;BME280;45815;52.334;5.024;2023-02-20T09:10:29;102221.25;;;8.29;100.00
58955;BME280;45815;52.334;5.024;2023-02-20T09:12:56;102226.50;;;8.29;100.00
58955;BME280;45815;52.334;5.024;2023-02-20T09:15:27;102221.78;;;8.21;100.00
58955;BME280;45815;52.334;5.024;2023-02-20T09:17:53;102215.88;;;8.25;100.00
58955;BME280;45815;52.334;5.024;2023-02-20T09:20:20;102224.31;;;8.20;100.00
58955;BME280;45815;52.334;5.024;2023-02-20T09:22:46;102213.78;;;8.18;100.00
58955;BME280;45815;52.334;5.024;2023-02-20T09:25:13;102219.16;;;8.21;100.00
58955;BME280;45815;52.334;5.024;2023-02-20T09:27:38;102208.88;;;8.24;100.00
58955;BME280;45815;52.334;5.024;2023-02-20T09:30:07;102210.50;;;8.22;100.00
58955;BME280;45815;52.334;5.024;2023-02-20T09:32:33;102212.28;;;8.23;100.00
58955;BME280;45815;52.334;5.024;2023-02-20T09:34:58;102216.50;;;8.38;100.00
58955;BME280;45815;52.334;5.024;2023-02-20T09:37:24;102209.13;;;8.47;100.00
58955;BME280;45815;52.334;5.024;2023-02-20T09:39:50;102213.56;;;8.48;100.00
58955;BME280;45815;52.334;5.024;2023-02-20T09:42:33;102214.88;;;8.40;100.00
58955;BME280;45815;52.334;5.024;2023-02-20T09:45:19;102208.16;;;8.45;100.00
58955;BME280;45815;52.334;5.024;2023-02-20T09:50:32;102229.56;;;8.54;100.00
58955;BME280;45815;52.334;5.024;2023-02-20T09:53:10;102234.56;;;8.50;100.00
58955;BME280;45815;52.334;5.024;2023-02-20T09:55:40;102220.56;;;8.49;100.00
58955;BME280;45815;52.334;5.024;2023-02-20T09:58:16;102218.78;;;8.48;100.00
58955;BME280;45815;52.334;5.024;2023-02-20T10:00:43;102233.97;;;8.55;100.00
58955;BME280;45815;52.334;5.024;2023-02-20T10:03:20;102207.94;;;8.58;100.00
58955;BME280;45815;52.334;5.024;2023-02-20T10:05:47;102208.25;;;8.64;100.00
58955;BME280;45815;52.334;5.024;2023-02-20T10:08:18;102204.66;;;8.62;100.00
58955;BME280;45815;52.334;5.024;2023-02-20T10:10:44;102184.31;;;8.75;100.00
58955;BME280;45815;52.334;5.024;2023-02-20T10:24:13;102178.41;;;8.79;100.00
58955;BME280;45815;52.334;5.024;2023-02-20T10:26:46;102192.16;;;8.75;100.00
58955;BME280;45815;52.334;5.024;2023-02-20T10:31:48;102197.09;;;8.86;100.00
58955;BME280;45815;52.334;5.024;2023-02-20T10:34:23;102191.84;;;8.86;100.00
58955;BME280;45815;52.334;5.024;2023-02-20T10:36:59;102187.25;;;8.81;100.00
58955;BME280;45815;52.334;5.024;2023-02-20T10:39:27;102187.50;;;8.87;100.00
58955;BME280;45815;52.334;5.024;2023-02-20T10:41:59;102178.72;;;8.85;100.00
58955;BME280;45815;52.334;5.024;2023-02-20T10:44:27;102198.06;;;8.71;100.00
58955;BME280;45815;52.334;5.024;2023-02-20T10:47:05;102217.75;;;8.80;100.00
58955;BME280;45815;52.334;5.024;2023-02-20T10:52:26;102197.97;;;8.87;100.00
58955;BME280;45815;52.334;5.024;2023-02-20T10:55:08;102165.72;;;8.69;100.00
58955;BME280;45815;52.334;5.024;2023-02-20T10:57:40;102188.47;;;8.89;100.00
58955;BME280;45815;52.334;5.024;2023-02-20T11:00:26;102189.59;;;8.94;100.00
58955;BME280;45815;52.334;5.024;2023-02-20T11:03:03;102181.22;;;9.01;100.00
58955;BME280;45815;52.334;5.024;2023-02-20T11:05:35;102197.97;;;9.05;100.00
58955;BME280;45815;52.334;5.024;2023-02-20T11:08:02;102185.72;;;9.04;100.00
58955;BME280;45815;52.334;5.024;2023-02-20T11:10:28;102187.13;;;8.97;100.00
58955;BME280;45815;52.334;5.024;2023-02-20T11:12:58;102181.72;;;8.94;100.00
58955;BME280;45815;52.334;5.024;2023-02-20T11:15:32;102212.78;;;9.04;100.00
58955;BME280;45815;52.334;5.024;2023-02-20T11:17:58;102223.41;;;9.07;100.00
58955;BME280;45815;52.334;5.024;2023-02-20T11:24:03;102215.53;;;9.07;100.00
58955;BME280;45815;52.334;5.024;2023-02-20T11:26:28;102198.31;;;9.13;100.00
58955;BME280;45815;52.334;5.024;2023-02-20T11:29:05;102184.13;;;9.07;100.00
58955;BME280;45815;52.334;5.024;2023-02-20T11:31:42;102178.34;;;9.15;100.00
58955;BME280;45815;52.334;5.024;2023-02-20T11:34:31;102199.16;;;9.12;100.00
58955;BME280;45815;52.334;5.024;2023-02-20T11:37:04;102185.97;;;9.10;100.00
58955;BME280;45815;52.334;5.024;2023-02-20T11:39:30;102179.59;;;9.23;100.00
58955;BME280;45815;52.334;5.024;2023-02-20T11:42:17;102196.13;;;9.22;100.00
58955;BME280;45815;52.334;5.024;2023-02-20T11:44:44;102207.50;;;9.22;100.00
58955;BME280;45815;52.334;5.024;2023-02-20T11:47:19;102199.59;;;9.21;100.00
58955;BME280;45815;52.334;5.024;2023-02-20T11:49:46;102199.28;;;9.15;100.00
58955;BME280;45815;52.334;5.024;2023-02-20T11:52:16;102184.41;;;9.14;100.00
58955;BME280;45815;52.334;5.024;2023-02-20T11:54:42;102174.41;;;9.05;100.00
58955;BME280;45815;52.334;5.024;2023-02-20T11:57:27;102180.38;;;9.02;100.00
58955;BME280;45815;52.334;5.024;2023-02-20T12:00:25;102192.28;;;9.14;100.00
58955;BME280;45815;52.334;5.024;2023-02-20T12:02:53;102182.94;;;9.01;100.00
58955;BME280;45815;52.334;5.024;2023-02-20T12:05:20;102198.41;;;9.14;100.00
58955;BME280;45815;52.334;5.024;2023-02-20T12:07:54;102181.50;;;9.07;100.00
58955;BME280;45815;52.334;5.024;2023-02-20T12:12:54;102180.91;;;9.13;100.00
58955;BME280;45815;52.334;5.024;2023-02-20T12:15:23;102179.22;;;9.15;100.00
58955;BME280;45815;52.334;5.024;2023-02-20T12:21:07;102175.94;;;9.19;100.00
58955;BME280;45815;52.334;5.024;2023-02-20T12:23:47;102175.94;;;9.19;100.00
58955;BME280;45815;52.334;5.024;2023-02-20T12:34:33;102163.88;;;9.42;100.00
58955;BME280;45815;52.334;5.024;2023-02-20T12:40:00;102162.66;;;9.34;100.00
58955;BME280;45815;52.334;5.024;2023-02-20T12:42:38;102146.59;;;9.46;100.00
58955;BME280;45815;52.334;5.024;2023-02-20T12:51:03;102147.81;;;9.54;100.00
58955;BME280;45815;52.334;5.024;2023-02-20T12:56:29;102153.53;;;9.65;100.00
58955;BME280;45815;52.334;5.024;2023-02-20T12:59:25;102132.00;;;9.52;100.00
58955;BME280;45815;52.334;5.024;2023-02-20T13:01:52;102153.81;;;9.51;100.00
58955;BME280;45815;52.334;5.024;2023-02-20T13:04:27;102163.44;;;9.52;100.00
58955;BME280;45815;52.334;5.024;2023-02-20T13:07:05;102157.31;;;9.52;100.00
58955;BME280;45815;52.334;5.024;2023-02-20T13:09:41;102147.50;;;9.48;100.00
58955;BME280;45815;52.334;5.024;2023-02-20T13:12:15;102145.25;;;9.56;100.00
58955;BME280;45815;52.334;5.024;2023-02-20T13:15:01;102143.19;;;9.48;100.00
58955;BME280;45815;52.334;5.024;2023-02-20T13:17:53;102135.66;;;9.56;100.00
58955;BME280;45815;52.334;5.024;2023-02-20T13:20:27;102136.00;;;9.64;100.00
58955;BME280;45815;52.334;5.024;2023-02-20T13:25:50;102147.06;;;9.78;100.00
58955;BME280;45815;52.334;5.024;2023-02-20T13:28:35;102124.69;;;9.65;100.00
58955;BME280;45815;52.334;5.024;2023-02-20T13:33:35;102109.75;;;9.83;100.00
58955;BME280;45815;52.334;5.024;2023-02-20T13:36:02;102104.13;;;9.95;100.00
58955;BME280;45815;52.334;5.024;2023-02-20T13:38:28;102102.97;;;9.88;100.00
58955;BME280;45815;52.334;5.024;2023-02-20T13:46:11;102110.44;;;9.79;100.00
58955;BME280;45815;52.334;5.024;2023-02-20T13:48:46;102097.97;;;9.94;100.00
58955;BME280;45815;52.334;5.024;2023-02-20T13:54:11;102110.63;;;9.63;100.00
58955;BME280;45815;52.334;5.024;2023-02-20T13:59:09;102107.84;;;9.60;100.00
58955;BME280;45815;52.334;5.024;2023-02-20T14:04:20;102116.50;;;9.78;100.00
58955;BME280;45815;52.334;5.024;2023-02-20T14:06:50;102118.72;;;9.69;100.00
58955;BME280;45815;52.334;5.024;2023-02-20T14:09:21;102116.44;;;9.56;100.00
58955;BME280;45815;52.334;5.024;2023-02-20T14:11:48;102117.47;;;9.40;100.00
58955;BME280;45815;52.334;5.024;2023-02-20T14:14:39;102095.81;;;9.24;100.00
58955;BME280;45815;52.334;5.024;2023-02-20T14:17:13;102117.81;;;9.47;100.00
58955;BME280;45815;52.334;5.024;2023-02-20T14:19:45;102119.59;;;9.48;100.00
58955;BME280;45815;52.334;5.024;2023-02-20T14:24:59;102115.25;;;9.49;100.00
58955;BME280;45815;52.334;5.024;2023-02-20T14:27:31;102115.59;;;9.57;100.00
58955;BME280;45815;52.334;5.024;2023-02-20T14:30:10;102105.66;;;9.49;100.00
58955;BME280;45815;52.334;5.024;2023-02-20T14:32:37;102106.63;;;9.51;100.00
58955;BME280;45815;52.334;5.024;2023-02-20T14:35:12;102095.94;;;9.47;100.00
58955;BME280;45815;52.334;5.024;2023-02-20T14:40:38;102104.63;;;9.26;100.00
58955;BME280;45815;52.334;5.024;2023-02-20T14:43:22;102091.34;;;9.22;100.00